sensor_id;sensor_type;location;lat;lon;timestamp;temperature;humidity
26707;DHT22;14319;49.422;10.934;2022-09-12T00:00:01;13.40;93.60
26707;DHT22;14319;49.422;10.934;2022-09-12T00:02:12;13.40;93.50
26707;DHT22;14319;49.422;10.934;2022-09-12T00:04:12;13.40;93.20
26707;DHT22;14319;49.422;10.934;2022-09-12T00:06:25;13.50;93.00
26707;DHT22;14319;49.422;10.934;2022-09-12T00:08:26;13.50;92.70
26707;DHT22;14319;49.422;10.934;2022-09-12T00:10:26;13.30;92.70
26707;DHT22;14319;49.422;10.934;2022-09-12T00:12:27;13.20;93.60
26707;DHT22;14319;49.422;10.934;2022-09-12T00:14:28;13.10;93.90
26707;DHT22;14319;49.422;10.934;2022-09-12T00:16:31;13.00;94.80
26707;DHT22;14319;49.422;10.934;2022-09-12T00:18:33;13.10;95.40
26707;DHT22;14319;49.422;10.934;2022-09-12T00:20:34;13.00;94.40
26707;DHT22;14319;49.422;10.934;2022-09-12T00:22:35;12.90;94.40
26707;DHT22;14319;49.422;10.934;2022-09-12T00:24:36;12.90;95.30
26707;DHT22;14319;49.422;10.934;2022-09-12T00:26:37;12.80;94.80
26707;DHT22;14319;49.422;10.934;2022-09-12T00:28:39;12.70;95.10
26707;DHT22;14319;49.422;10.934;2022-09-12T00:30:45;12.70;95.30
26707;DHT22;14319;49.422;10.934;2022-09-12T00:32:46;12.80;95.30
26707;DHT22;14319;49.422;10.934;2022-09-12T00:34:47;12.80;95.00
26707;DHT22;14319;49.422;10.934;2022-09-12T00:36:47;12.90;94.50
26707;DHT22;14319;49.422;10.934;2022-09-12T00:38:51;12.70;94.30
26707;DHT22;14319;49.422;10.934;2022-09-12T00:40:51;12.60;95.80
26707;DHT22;14319;49.422;10.934;2022-09-12T00:42:52;12.40;97.60
26707;DHT22;14319;49.422;10.934;2022-09-12T00:44:53;12.40;97.30
26707;DHT22;14319;49.422;10.934;2022-09-12T00:47:21;12.40;98.20
26707;DHT22;14319;49.422;10.934;2022-09-12T00:49:56;12.40;97.80
26707;DHT22;14319;49.422;10.934;2022-09-12T00:51:59;12.30;97.00
26707;DHT22;14319;49.422;10.934;2022-09-12T00:54:05;12.30;97.30
26707;DHT22;14319;49.422;10.934;2022-09-12T00:56:08;12.10;97.10
26707;DHT22;14319;49.422;10.934;2022-09-12T00:58:21;12.10;96.50
26707;DHT22;14319;49.422;10.934;2022-09-12T01:00:24;12.10;97.00
26707;DHT22;14319;49.422;10.934;2022-09-12T01:02:26;12.30;96.90
26707;DHT22;14319;49.422;10.934;2022-09-12T01:04:28;12.20;96.10
26707;DHT22;14319;49.422;10.934;2022-09-12T01:06:35;12.20;96.50
26707;DHT22;14319;49.422;10.934;2022-09-12T01:08:37;12.10;96.30
26707;DHT22;14319;49.422;10.934;2022-09-12T01:10:41;12.20;96.60
26707;DHT22;14319;49.422;10.934;2022-09-12T01:12:42;12.20;95.20
26707;DHT22;14319;49.422;10.934;2022-09-12T01:14:43;12.10;95.70
26707;DHT22;14319;49.422;10.934;2022-09-12T01:16:46;12.10;95.80
26707;DHT22;14319;49.422;10.934;2022-09-12T01:34:57;12.00;95.60
26707;DHT22;14319;49.422;10.934;2022-09-12T01:37:30;11.90;95.60
26707;DHT22;14319;49.422;10.934;2022-09-12T01:39:42;11.90;95.60
26707;DHT22;14319;49.422;10.934;2022-09-12T01:42:14;11.80;95.50
26707;DHT22;14319;49.422;10.934;2022-09-12T01:44:52;11.80;96.50
26707;DHT22;14319;49.422;10.934;2022-09-12T01:47:11;11.90;95.00
26707;DHT22;14319;49.422;10.934;2022-09-12T01:49:23;11.90;95.30
26707;DHT22;14319;49.422;10.934;2022-09-12T01:51:33;11.80;95.00
26707;DHT22;14319;49.422;10.934;2022-09-12T01:53:40;11.80;95.40
26707;DHT22;14319;49.422;10.934;2022-09-12T01:56:38;11.60;95.80
26707;DHT22;14319;49.422;10.934;2022-09-12T01:58:26;11.60;96.30
26707;DHT22;14319;49.422;10.934;2022-09-12T02:00:29;11.60;95.80
26707;DHT22;14319;49.422;10.934;2022-09-12T02:02:38;11.60;95.60
26707;DHT22;14319;49.422;10.934;2022-09-12T02:05:27;11.60;95.90
26707;DHT22;14319;49.422;10.934;2022-09-12T02:07:23;11.60;96.20
26707;DHT22;14319;49.422;10.934;2022-09-12T02:09:29;11.60;96.30
26707;DHT22;14319;49.422;10.934;2022-09-12T02:11:34;11.60;96.70
26707;DHT22;14319;49.422;10.934;2022-09-12T02:13:43;11.60;97.00
26707;DHT22;14319;49.422;10.934;2022-09-12T02:15:53;11.60;96.70
26707;DHT22;14319;49.422;10.934;2022-09-12T02:17:57;11.70;97.00
26707;DHT22;14319;49.422;10.934;2022-09-12T02:20:22;11.80;95.80
26707;DHT22;14319;49.422;10.934;2022-09-12T02:22:26;11.80;96.40
26707;DHT22;14319;49.422;10.934;2022-09-12T02:24:36;11.70;96.20
26707;DHT22;14319;49.422;10.934;2022-09-12T02:26:43;11.60;96.50
26707;DHT22;14319;49.422;10.934;2022-09-12T02:28:46;11.60;97.00
26707;DHT22;14319;49.422;10.934;2022-09-12T02:31:12;11.60;97.00
26707;DHT22;14319;49.422;10.934;2022-09-12T02:35:51;11.90;96.90
26707;DHT22;14319;49.422;10.934;2022-09-12T02:40:02;11.90;96.30
26707;DHT22;14319;49.422;10.934;2022-09-12T02:42:03;12.00;96.90
26707;DHT22;14319;49.422;10.934;2022-09-12T02:44:05;12.00;96.30
26707;DHT22;14319;49.422;10.934;2022-09-12T02:46:09;12.00;96.40
26707;DHT22;14319;49.422;10.934;2022-09-12T02:48:26;12.00;95.90
26707;DHT22;14319;49.422;10.934;2022-09-12T02:50:29;12.00;96.60
26707;DHT22;14319;49.422;10.934;2022-09-12T02:52:30;12.10;96.80
26707;DHT22;14319;49.422;10.934;2022-09-12T02:54:31;12.20;96.50
26707;DHT22;14319;49.422;10.934;2022-09-12T02:56:32;12.20;95.80
26707;DHT22;14319;49.422;10.934;2022-09-12T02:58:33;12.20;95.10
26707;DHT22;14319;49.422;10.934;2022-09-12T03:12:43;12.10;95.50
26707;DHT22;14319;49.422;10.934;2022-09-12T03:17:41;12.00;96.10
26707;DHT22;14319;49.422;10.934;2022-09-12T03:20:00;12.10;96.10
26707;DHT22;14319;49.422;10.934;2022-09-12T03:22:07;12.20;95.40
26707;DHT22;14319;49.422;10.934;2022-09-12T03:24:34;12.30;94.70
26707;DHT22;14319;49.422;10.934;2022-09-12T03:26:42;12.40;94.30
26707;DHT22;14319;49.422;10.934;2022-09-12T03:28:45;12.20;94.60
26707;DHT22;14319;49.422;10.934;2022-09-12T03:30:47;12.00;95.30
26707;DHT22;14319;49.422;10.934;2022-09-12T03:32:51;11.90;97.10
26707;DHT22;14319;49.422;10.934;2022-09-12T03:34:53;11.90;96.90
26707;DHT22;14319;49.422;10.934;2022-09-12T03:36:54;11.80;97.30
26707;DHT22;14319;49.422;10.934;2022-09-12T03:38:55;11.90;98.10
26707;DHT22;14319;49.422;10.934;2022-09-12T03:40:56;11.90;97.30
26707;DHT22;14319;49.422;10.934;2022-09-12T03:42:57;11.90;96.80
26707;DHT22;14319;49.422;10.934;2022-09-12T03:44:58;11.80;96.20
26707;DHT22;14319;49.422;10.934;2022-09-12T03:46:59;11.70;96.50
26707;DHT22;14319;49.422;10.934;2022-09-12T03:49:00;11.60;98.60
26707;DHT22;14319;49.422;10.934;2022-09-12T03:51:02;11.60;97.80
26707;DHT22;14319;49.422;10.934;2022-09-12T03:53:03;11.60;97.60
26707;DHT22;14319;49.422;10.934;2022-09-12T03:55:05;11.70;98.60
26707;DHT22;14319;49.422;10.934;2022-09-12T03:57:06;11.70;98.00
26707;DHT22;14319;49.422;10.934;2022-09-12T03:59:06;11.60;98.50
26707;DHT22;14319;49.422;10.934;2022-09-12T04:01:12;11.60;98.70
26707;DHT22;14319;49.422;10.934;2022-09-12T04:03:13;11.50;99.00
26707;DHT22;14319;49.422;10.934;2022-09-12T04:05:14;11.40;99.80
26707;DHT22;14319;49.422;10.934;2022-09-12T04:07:16;11.50;99.90
26707;DHT22;14319;49.422;10.934;2022-09-12T04:09:16;11.40;99.90
26707;DHT22;14319;49.422;10.934;2022-09-12T04:11:19;11.40;99.90
26707;DHT22;14319;49.422;10.934;2022-09-12T04:13:20;11.40;99.90
26707;DHT22;14319;49.422;10.934;2022-09-12T04:15:21;11.60;99.90
26707;DHT22;14319;49.422;10.934;2022-09-12T04:17:21;11.70;98.30
26707;DHT22;14319;49.422;10.934;2022-09-12T04:19:23;11.80;98.50
26707;DHT22;14319;49.422;10.934;2022-09-12T04:21:25;11.90;97.50
26707;DHT22;14319;49.422;10.934;2022-09-12T04:23:26;12.00;96.30
26707;DHT22;14319;49.422;10.934;2022-09-12T04:25:26;11.60;98.70
26707;DHT22;14319;49.422;10.934;2022-09-12T04:27:28;11.60;99.60
26707;DHT22;14319;49.422;10.934;2022-09-12T04:29:28;11.70;99.70
26707;DHT22;14319;49.422;10.934;2022-09-12T04:31:30;11.30;99.40
26707;DHT22;14319;49.422;10.934;2022-09-12T04:33:31;11.30;99.90
26707;DHT22;14319;49.422;10.934;2022-09-12T04:35:34;11.30;99.90
26707;DHT22;14319;49.422;10.934;2022-09-12T04:37:35;11.40;99.90
26707;DHT22;14319;49.422;10.934;2022-09-12T04:39:35;11.50;99.90
26707;DHT22;14319;49.422;10.934;2022-09-12T04:41:38;11.50;99.90
26707;DHT22;14319;49.422;10.934;2022-09-12T04:43:39;11.60;99.50
26707;DHT22;14319;49.422;10.934;2022-09-12T04:45:40;11.70;99.60
26707;DHT22;14319;49.422;10.934;2022-09-12T04:47:41;11.90;98.90
26707;DHT22;14319;49.422;10.934;2022-09-12T04:49:41;12.00;97.90
26707;DHT22;14319;49.422;10.934;2022-09-12T04:51:42;11.90;97.90
26707;DHT22;14319;49.422;10.934;2022-09-12T04:53:48;11.90;98.20
26707;DHT22;14319;49.422;10.934;2022-09-12T04:55:48;11.80;99.30
26707;DHT22;14319;49.422;10.934;2022-09-12T04:57:49;11.90;99.10
26707;DHT22;14319;49.422;10.934;2022-09-12T04:59:50;11.80;97.70
26707;DHT22;14319;49.422;10.934;2022-09-12T05:01:51;11.80;99.00
26707;DHT22;14319;49.422;10.934;2022-09-12T05:03:53;11.80;99.90
26707;DHT22;14319;49.422;10.934;2022-09-12T05:05:54;11.80;99.20
26707;DHT22;14319;49.422;10.934;2022-09-12T05:07:54;11.90;97.50
26707;DHT22;14319;49.422;10.934;2022-09-12T05:09:55;11.80;96.50
26707;DHT22;14319;49.422;10.934;2022-09-12T05:11:56;11.70;97.00
26707;DHT22;14319;49.422;10.934;2022-09-12T05:13:58;11.80;97.30
26707;DHT22;14319;49.422;10.934;2022-09-12T05:16:00;11.80;96.50
26707;DHT22;14319;49.422;10.934;2022-09-12T05:18:01;11.80;96.90
26707;DHT22;14319;49.422;10.934;2022-09-12T05:20:02;11.60;95.70
26707;DHT22;14319;49.422;10.934;2022-09-12T05:22:03;11.70;96.60
26707;DHT22;14319;49.422;10.934;2022-09-12T05:24:06;11.70;96.30
26707;DHT22;14319;49.422;10.934;2022-09-12T05:26:07;11.70;97.20
26707;DHT22;14319;49.422;10.934;2022-09-12T05:28:10;11.70;96.10
26707;DHT22;14319;49.422;10.934;2022-09-12T05:30:10;11.80;96.70
26707;DHT22;14319;49.422;10.934;2022-09-12T05:32:11;12.00;96.80
26707;DHT22;14319;49.422;10.934;2022-09-12T05:34:12;12.10;97.20
26707;DHT22;14319;49.422;10.934;2022-09-12T05:36:25;12.10;95.70
26707;DHT22;14319;49.422;10.934;2022-09-12T05:38:27;12.10;96.30
26707;DHT22;14319;49.422;10.934;2022-09-12T05:40:28;12.10;95.10
26707;DHT22;14319;49.422;10.934;2022-09-12T05:42:29;12.00;96.00
26707;DHT22;14319;49.422;10.934;2022-09-12T05:44:30;12.00;95.80
26707;DHT22;14319;49.422;10.934;2022-09-12T05:46:35;12.00;96.60
26707;DHT22;14319;49.422;10.934;2022-09-12T05:48:38;11.70;96.70
26707;DHT22;14319;49.422;10.934;2022-09-12T05:50:39;11.70;99.50
26707;DHT22;14319;49.422;10.934;2022-09-12T05:52:41;11.80;98.60
26707;DHT22;14319;49.422;10.934;2022-09-12T05:54:42;12.00;97.60
26707;DHT22;14319;49.422;10.934;2022-09-12T05:56:43;12.00;97.90
26707;DHT22;14319;49.422;10.934;2022-09-12T05:58:46;12.20;97.40
26707;DHT22;14319;49.422;10.934;2022-09-12T06:00:47;12.20;97.30
26707;DHT22;14319;49.422;10.934;2022-09-12T06:02:52;12.30;95.00
26707;DHT22;14319;49.422;10.934;2022-09-12T06:04:53;12.20;95.80
26707;DHT22;14319;49.422;10.934;2022-09-12T06:06:54;12.40;95.30
26707;DHT22;14319;49.422;10.934;2022-09-12T06:08:59;12.60;93.60
26707;DHT22;14319;49.422;10.934;2022-09-12T06:11:05;12.50;92.70
26707;DHT22;14319;49.422;10.934;2022-09-12T06:13:06;12.50;93.50
26707;DHT22;14319;49.422;10.934;2022-09-12T06:15:08;12.30;94.70
26707;DHT22;14319;49.422;10.934;2022-09-12T06:17:09;12.30;95.80
26707;DHT22;14319;49.422;10.934;2022-09-12T06:19:18;12.40;95.80
26707;DHT22;14319;49.422;10.934;2022-09-12T06:21:20;12.40;96.20
26707;DHT22;14319;49.422;10.934;2022-09-12T06:23:21;12.50;95.50
26707;DHT22;14319;49.422;10.934;2022-09-12T06:25:22;12.40;96.30
26707;DHT22;14319;49.422;10.934;2022-09-12T06:27:23;12.30;95.90
26707;DHT22;14319;49.422;10.934;2022-09-12T06:29:24;12.40;97.70
26707;DHT22;14319;49.422;10.934;2022-09-12T06:31:33;12.40;96.40
26707;DHT22;14319;49.422;10.934;2022-09-12T06:33:36;12.60;95.90
26707;DHT22;14319;49.422;10.934;2022-09-12T06:35:37;12.70;94.80
26707;DHT22;14319;49.422;10.934;2022-09-12T06:37:38;12.60;94.30
26707;DHT22;14319;49.422;10.934;2022-09-12T06:39:40;12.50;95.10
26707;DHT22;14319;49.422;10.934;2022-09-12T06:41:40;12.40;94.40
26707;DHT22;14319;49.422;10.934;2022-09-12T06:43:41;12.50;95.90
26707;DHT22;14319;49.422;10.934;2022-09-12T06:45:50;12.50;96.10
26707;DHT22;14319;49.422;10.934;2022-09-12T06:47:51;12.40;96.60
26707;DHT22;14319;49.422;10.934;2022-09-12T06:49:52;12.40;97.00
26707;DHT22;14319;49.422;10.934;2022-09-12T06:51:52;12.70;96.60
26707;DHT22;14319;49.422;10.934;2022-09-12T06:53:54;12.80;94.30
26707;DHT22;14319;49.422;10.934;2022-09-12T06:56:00;12.90;94.50
26707;DHT22;14319;49.422;10.934;2022-09-12T06:58:01;13.00;93.00
26707;DHT22;14319;49.422;10.934;2022-09-12T07:00:04;13.10;92.90
26707;DHT22;14319;49.422;10.934;2022-09-12T07:02:05;13.20;92.60
26707;DHT22;14319;49.422;10.934;2022-09-12T07:04:07;13.20;93.50
26707;DHT22;14319;49.422;10.934;2022-09-12T07:06:10;13.20;92.90
26707;DHT22;14319;49.422;10.934;2022-09-12T07:08:11;13.20;92.60
26707;DHT22;14319;49.422;10.934;2022-09-12T07:10:12;13.20;93.20
26707;DHT22;14319;49.422;10.934;2022-09-12T07:12:13;13.30;92.70
26707;DHT22;14319;49.422;10.934;2022-09-12T07:14:14;13.40;92.00
26707;DHT22;14319;49.422;10.934;2022-09-12T07:16:15;13.50;92.40
26707;DHT22;14319;49.422;10.934;2022-09-12T07:18:16;13.60;91.40
26707;DHT22;14319;49.422;10.934;2022-09-12T07:20:17;13.50;90.90
26707;DHT22;14319;49.422;10.934;2022-09-12T07:22:18;13.40;91.90
26707;DHT22;14319;49.422;10.934;2022-09-12T07:24:18;13.40;93.00
26707;DHT22;14319;49.422;10.934;2022-09-12T07:26:20;13.60;92.70
26707;DHT22;14319;49.422;10.934;2022-09-12T07:28:20;13.50;92.40
26707;DHT22;14319;49.422;10.934;2022-09-12T07:30:21;13.50;92.90
26707;DHT22;14319;49.422;10.934;2022-09-12T07:32:22;13.70;91.80
26707;DHT22;14319;49.422;10.934;2022-09-12T07:34:23;13.70;92.50
26707;DHT22;14319;49.422;10.934;2022-09-12T07:36:24;13.80;93.10
26707;DHT22;14319;49.422;10.934;2022-09-12T07:38:25;13.60;93.10
26707;DHT22;14319;49.422;10.934;2022-09-12T07:40:26;13.70;93.60
26707;DHT22;14319;49.422;10.934;2022-09-12T07:42:27;13.60;91.00
26707;DHT22;14319;49.422;10.934;2022-09-12T07:44:28;13.60;92.50
26707;DHT22;14319;49.422;10.934;2022-09-12T07:46:30;13.90;92.20
26707;DHT22;14319;49.422;10.934;2022-09-12T07:48:31;13.80;89.90
26707;DHT22;14319;49.422;10.934;2022-09-12T07:50:33;13.80;92.70
26707;DHT22;14319;49.422;10.934;2022-09-12T07:52:34;13.90;92.80
26707;DHT22;14319;49.422;10.934;2022-09-12T07:54:34;14.10;92.90
26707;DHT22;14319;49.422;10.934;2022-09-12T07:56:36;14.20;91.60
26707;DHT22;14319;49.422;10.934;2022-09-12T07:58:38;14.10;91.40
26707;DHT22;14319;49.422;10.934;2022-09-12T08:00:40;14.10;92.60
26707;DHT22;14319;49.422;10.934;2022-09-12T08:02:40;14.10;93.50
26707;DHT22;14319;49.422;10.934;2022-09-12T08:04:41;14.10;93.20
26707;DHT22;14319;49.422;10.934;2022-09-12T08:06:42;14.20;92.40
26707;DHT22;14319;49.422;10.934;2022-09-12T08:08:43;14.20;91.30
26707;DHT22;14319;49.422;10.934;2022-09-12T08:10:43;14.50;91.50
26707;DHT22;14319;49.422;10.934;2022-09-12T08:12:44;14.60;90.60
26707;DHT22;14319;49.422;10.934;2022-09-12T08:14:45;14.60;89.90
26707;DHT22;14319;49.422;10.934;2022-09-12T08:16:46;14.50;93.00
26707;DHT22;14319;49.422;10.934;2022-09-12T08:18:48;14.40;91.40
26707;DHT22;14319;49.422;10.934;2022-09-12T08:20:55;14.20;93.70
26707;DHT22;14319;49.422;10.934;2022-09-12T08:22:56;14.20;93.90
26707;DHT22;14319;49.422;10.934;2022-09-12T08:24:56;14.60;93.20
26707;DHT22;14319;49.422;10.934;2022-09-12T08:26:58;14.70;92.10
26707;DHT22;14319;49.422;10.934;2022-09-12T08:28:59;14.70;91.90
26707;DHT22;14319;49.422;10.934;2022-09-12T08:31:05;14.90;91.90
26707;DHT22;14319;49.422;10.934;2022-09-12T08:33:06;15.10;91.50
26707;DHT22;14319;49.422;10.934;2022-09-12T08:35:08;14.90;91.10
26707;DHT22;14319;49.422;10.934;2022-09-12T08:37:11;15.00;92.40
26707;DHT22;14319;49.422;10.934;2022-09-12T08:39:12;15.10;91.90
26707;DHT22;14319;49.422;10.934;2022-09-12T08:41:37;15.00;92.40
26707;DHT22;14319;49.422;10.934;2022-09-12T08:46:22;14.80;92.30
26707;DHT22;14319;49.422;10.934;2022-09-12T08:48:27;14.80;94.00
26707;DHT22;14319;49.422;10.934;2022-09-12T08:50:31;14.70;93.70
26707;DHT22;14319;49.422;10.934;2022-09-12T08:52:37;14.90;94.10
26707;DHT22;14319;49.422;10.934;2022-09-12T08:54:42;14.80;93.30
26707;DHT22;14319;49.422;10.934;2022-09-12T08:56:45;14.70;93.70
26707;DHT22;14319;49.422;10.934;2022-09-12T08:58:47;14.70;95.20
26707;DHT22;14319;49.422;10.934;2022-09-12T09:05:21;15.00;94.80
26707;DHT22;14319;49.422;10.934;2022-09-12T09:14:45;15.00;95.20
26707;DHT22;14319;49.422;10.934;2022-09-12T09:16:50;15.00;96.10
26707;DHT22;14319;49.422;10.934;2022-09-12T09:18:56;15.10;96.20
26707;DHT22;14319;49.422;10.934;2022-09-12T09:21:19;15.10;96.50
26707;DHT22;14319;49.422;10.934;2022-09-12T09:23:26;15.10;97.40
26707;DHT22;14319;49.422;10.934;2022-09-12T09:25:48;15.20;96.60
26707;DHT22;14319;49.422;10.934;2022-09-12T09:27:58;15.30;95.50
26707;DHT22;14319;49.422;10.934;2022-09-12T09:30:02;15.30;96.20
26707;DHT22;14319;49.422;10.934;2022-09-12T09:32:08;15.40;95.70
26707;DHT22;14319;49.422;10.934;2022-09-12T09:34:21;15.50;95.20
26707;DHT22;14319;49.422;10.934;2022-09-12T09:36:48;15.50;94.30
26707;DHT22;14319;49.422;10.934;2022-09-12T09:39:04;15.50;94.00
26707;DHT22;14319;49.422;10.934;2022-09-12T09:41:27;15.60;94.60
26707;DHT22;14319;49.422;10.934;2022-09-12T09:43:33;15.70;93.70
26707;DHT22;14319;49.422;10.934;2022-09-12T09:45:34;15.80;92.20
26707;DHT22;14319;49.422;10.934;2022-09-12T09:47:35;15.90;91.60
26707;DHT22;14319;49.422;10.934;2022-09-12T09:49:35;16.00;91.00
26707;DHT22;14319;49.422;10.934;2022-09-12T09:51:40;16.00;91.10
26707;DHT22;14319;49.422;10.934;2022-09-12T09:53:51;16.10;91.10
26707;DHT22;14319;49.422;10.934;2022-09-12T09:55:54;16.10;90.00
26707;DHT22;14319;49.422;10.934;2022-09-12T09:57:56;16.20;91.00
26707;DHT22;14319;49.422;10.934;2022-09-12T09:59:57;16.30;88.60
26707;DHT22;14319;49.422;10.934;2022-09-12T10:01:59;16.40;89.20
26707;DHT22;14319;49.422;10.934;2022-09-12T10:04:03;16.50;88.10
26707;DHT22;14319;49.422;10.934;2022-09-12T10:06:38;16.50;87.60
26707;DHT22;14319;49.422;10.934;2022-09-12T10:08:39;16.60;85.90
26707;DHT22;14319;49.422;10.934;2022-09-12T10:10:55;16.70;85.30
26707;DHT22;14319;49.422;10.934;2022-09-12T10:13:22;16.80;86.00
26707;DHT22;14319;49.422;10.934;2022-09-12T10:15:25;16.90;86.40
26707;DHT22;14319;49.422;10.934;2022-09-12T10:17:31;16.90;84.60
26707;DHT22;14319;49.422;10.934;2022-09-12T10:19:39;17.00;83.70
26707;DHT22;14319;49.422;10.934;2022-09-12T10:21:50;17.00;82.10
26707;DHT22;14319;49.422;10.934;2022-09-12T10:24:20;17.00;82.70
26707;DHT22;14319;49.422;10.934;2022-09-12T10:26:22;17.00;83.50
26707;DHT22;14319;49.422;10.934;2022-09-12T10:30:31;17.20;82.30
26707;DHT22;14319;49.422;10.934;2022-09-12T10:32:38;17.20;83.60
26707;DHT22;14319;49.422;10.934;2022-09-12T10:34:44;17.30;83.10
26707;DHT22;14319;49.422;10.934;2022-09-12T10:36:45;17.60;82.50
26707;DHT22;14319;49.422;10.934;2022-09-12T10:38:57;17.60;83.60
26707;DHT22;14319;49.422;10.934;2022-09-12T10:41:06;17.60;82.20
26707;DHT22;14319;49.422;10.934;2022-09-12T10:43:37;17.60;81.20
26707;DHT22;14319;49.422;10.934;2022-09-12T10:45:38;17.60;80.70
26707;DHT22;14319;49.422;10.934;2022-09-12T10:47:38;17.60;80.20
26707;DHT22;14319;49.422;10.934;2022-09-12T10:49:39;17.60;80.90
26707;DHT22;14319;49.422;10.934;2022-09-12T10:51:40;17.60;80.30
26707;DHT22;14319;49.422;10.934;2022-09-12T10:53:43;17.70;81.30
26707;DHT22;14319;49.422;10.934;2022-09-12T11:00:55;18.00;80.30
26707;DHT22;14319;49.422;10.934;2022-09-12T11:03:29;18.10;80.10
26707;DHT22;14319;49.422;10.934;2022-09-12T11:05:55;18.30;76.50
26707;DHT22;14319;49.422;10.934;2022-09-12T11:08:18;18.40;74.90
26707;DHT22;14319;49.422;10.934;2022-09-12T11:17:55;18.60;77.50
26707;DHT22;14319;49.422;10.934;2022-09-12T11:23:17;18.70;73.80
26707;DHT22;14319;49.422;10.934;2022-09-12T11:30:02;18.80;69.00
26707;DHT22;14319;49.422;10.934;2022-09-12T11:34:38;18.80;69.10
26707;DHT22;14319;49.422;10.934;2022-09-12T11:37:00;18.80;69.00
26707;DHT22;14319;49.422;10.934;2022-09-12T11:39:36;18.90;70.60
26707;DHT22;14319;49.422;10.934;2022-09-12T11:41:41;19.10;73.40
26707;DHT22;14319;49.422;10.934;2022-09-12T11:50:59;19.30;70.50
26707;DHT22;14319;49.422;10.934;2022-09-12T11:53:39;19.40;70.30
26707;DHT22;14319;49.422;10.934;2022-09-12T11:58:03;19.50;70.40
26707;DHT22;14319;49.422;10.934;2022-09-12T12:00:16;19.40;68.20
26707;DHT22;14319;49.422;10.934;2022-09-12T12:02:25;19.40;69.20
26707;DHT22;14319;49.422;10.934;2022-09-12T12:04:43;19.50;67.90
26707;DHT22;14319;49.422;10.934;2022-09-12T12:06:55;19.80;67.80
26707;DHT22;14319;49.422;10.934;2022-09-12T12:08:57;19.90;68.20
26707;DHT22;14319;49.422;10.934;2022-09-12T12:11:02;19.90;67.90
26707;DHT22;14319;49.422;10.934;2022-09-12T12:13:07;20.00;67.40
26707;DHT22;14319;49.422;10.934;2022-09-12T12:15:16;20.10;68.50
26707;DHT22;14319;49.422;10.934;2022-09-12T12:17:26;20.20;69.00
26707;DHT22;14319;49.422;10.934;2022-09-12T12:19:36;20.20;65.70
26707;DHT22;14319;49.422;10.934;2022-09-12T12:21:50;20.10;65.00
26707;DHT22;14319;49.422;10.934;2022-09-12T12:33:06;20.60;66.30
26707;DHT22;14319;49.422;10.934;2022-09-12T12:41:45;20.80;66.10
26707;DHT22;14319;49.422;10.934;2022-09-12T12:43:49;20.90;66.40
26707;DHT22;14319;49.422;10.934;2022-09-12T12:46:00;21.00;65.60
26707;DHT22;14319;49.422;10.934;2022-09-12T12:48:10;21.10;64.20
26707;DHT22;14319;49.422;10.934;2022-09-12T12:52:20;21.30;62.70
26707;DHT22;14319;49.422;10.934;2022-09-12T12:54:29;21.20;62.80
26707;DHT22;14319;49.422;10.934;2022-09-12T12:56:40;21.30;64.10
26707;DHT22;14319;49.422;10.934;2022-09-12T12:58:41;21.00;62.70
26707;DHT22;14319;49.422;10.934;2022-09-12T13:00:42;20.90;63.60
26707;DHT22;14319;49.422;10.934;2022-09-12T13:04:59;21.10;65.50
26707;DHT22;14319;49.422;10.934;2022-09-12T13:07:06;21.20;64.70
26707;DHT22;14319;49.422;10.934;2022-09-12T13:09:24;21.10;65.30
26707;DHT22;14319;49.422;10.934;2022-09-12T13:11:35;21.30;62.60
26707;DHT22;14319;49.422;10.934;2022-09-12T13:13:57;21.00;62.90
26707;DHT22;14319;49.422;10.934;2022-09-12T13:15:58;21.10;67.10
26707;DHT22;14319;49.422;10.934;2022-09-12T13:18:10;21.00;60.60
26707;DHT22;14319;49.422;10.934;2022-09-12T13:22:12;20.90;59.90
26707;DHT22;14319;49.422;10.934;2022-09-12T13:24:14;20.80;62.00
26707;DHT22;14319;49.422;10.934;2022-09-12T13:26:23;20.90;62.00
26707;DHT22;14319;49.422;10.934;2022-09-12T13:28:30;21.00;62.70
26707;DHT22;14319;49.422;10.934;2022-09-12T13:30:36;21.10;63.90
26707;DHT22;14319;49.422;10.934;2022-09-12T13:32:38;21.30;62.70
26707;DHT22;14319;49.422;10.934;2022-09-12T13:35:06;21.40;64.60
26707;DHT22;14319;49.422;10.934;2022-09-12T13:37:39;21.50;62.80
26707;DHT22;14319;49.422;10.934;2022-09-12T13:39:46;21.60;64.70
26707;DHT22;14319;49.422;10.934;2022-09-12T13:42:02;21.60;63.30
26707;DHT22;14319;49.422;10.934;2022-09-12T13:44:13;21.60;60.20
26707;DHT22;14319;49.422;10.934;2022-09-12T13:46:22;21.60;59.30
26707;DHT22;14319;49.422;10.934;2022-09-12T13:48:26;21.60;61.20
26707;DHT22;14319;49.422;10.934;2022-09-12T13:50:31;21.70;62.00
26707;DHT22;14319;49.422;10.934;2022-09-12T13:52:34;21.70;63.20
26707;DHT22;14319;49.422;10.934;2022-09-12T13:54:37;21.80;63.50
26707;DHT22;14319;49.422;10.934;2022-09-12T13:56:48;21.60;61.50
26707;DHT22;14319;49.422;10.934;2022-09-12T13:58:55;21.70;63.60
26707;DHT22;14319;49.422;10.934;2022-09-12T14:01:15;21.80;63.20
26707;DHT22;14319;49.422;10.934;2022-09-12T14:03:26;21.80;61.80
26707;DHT22;14319;49.422;10.934;2022-09-12T14:05:54;21.90;62.00
26707;DHT22;14319;49.422;10.934;2022-09-12T14:08:00;21.90;60.80
26707;DHT22;14319;49.422;10.934;2022-09-12T14:10:04;21.90;60.50
26707;DHT22;14319;49.422;10.934;2022-09-12T14:12:14;21.80;60.60
26707;DHT22;14319;49.422;10.934;2022-09-12T14:14:28;21.80;61.50
26707;DHT22;14319;49.422;10.934;2022-09-12T14:16:37;22.00;61.10
26707;DHT22;14319;49.422;10.934;2022-09-12T14:18:39;22.20;61.20
26707;DHT22;14319;49.422;10.934;2022-09-12T14:20:42;22.20;60.60
26707;DHT22;14319;49.422;10.934;2022-09-12T14:22:43;22.20;59.00
26707;DHT22;14319;49.422;10.934;2022-09-12T14:24:48;22.20;58.20
26707;DHT22;14319;49.422;10.934;2022-09-12T14:26:53;22.10;59.20
26707;DHT22;14319;49.422;10.934;2022-09-12T14:28:57;22.30;61.50
26707;DHT22;14319;49.422;10.934;2022-09-12T14:31:06;22.30;58.60
26707;DHT22;14319;49.422;10.934;2022-09-12T14:35:18;22.50;58.80
26707;DHT22;14319;49.422;10.934;2022-09-12T14:37:19;22.50;58.70
26707;DHT22;14319;49.422;10.934;2022-09-12T14:39:22;22.40;59.30
26707;DHT22;14319;49.422;10.934;2022-09-12T14:41:28;22.30;58.10
26707;DHT22;14319;49.422;10.934;2022-09-12T14:43:43;22.40;59.90
26707;DHT22;14319;49.422;10.934;2022-09-12T14:45:51;22.50;59.60
26707;DHT22;14319;49.422;10.934;2022-09-12T14:47:53;22.60;58.60
26707;DHT22;14319;49.422;10.934;2022-09-12T14:49:54;22.60;57.60